createdAt,value
2022-10-09T00:01:37.551Z,71.82
2022-10-09T00:04:03.897Z,71.36
2022-10-09T00:06:30.231Z,71.01
2022-10-09T00:08:56.590Z,71.21
2022-10-09T00:11:22.906Z,71.44
2022-10-09T00:13:49.253Z,71.08
2022-10-09T00:16:15.655Z,70.81
2022-10-09T00:18:41.932Z,70.74
2022-10-09T00:21:08.255Z,70.74
2022-10-09T00:23:34.573Z,70.77
2022-10-09T00:26:00.894Z,70.42
2022-10-09T00:28:27.299Z,70.58
2022-10-09T00:30:53.693Z,70.83
2022-10-09T00:33:19.910Z,70.99
2022-10-09T00:35:46.230Z,71.26
2022-10-09T00:38:12.573Z,71.15
2022-10-09T00:40:38.891Z,71.05
2022-10-09T00:43:05.215Z,70.60
2022-10-09T00:45:31.540Z,70.25
2022-10-09T00:47:57.914Z,70.26
2022-10-09T00:50:24.228Z,70.33
2022-10-09T00:52:50.933Z,70.33
2022-10-09T00:55:16.909Z,70.14
2022-10-09T00:57:43.235Z,70.09
2022-10-09T01:00:09.572Z,69.83
2022-10-09T01:02:36.032Z,70.11
2022-10-09T01:05:02.234Z,70.45
2022-10-09T01:07:28.576Z,70.39
2022-10-09T01:09:54.896Z,70.32
2022-10-09T01:12:21.236Z,70.61
2022-10-09T01:14:47.690Z,71.03
2022-10-09T01:17:14.012Z,71.21
2022-10-09T01:19:40.346Z,71.09
2022-10-09T01:22:06.687Z,71.05
2022-10-09T01:24:33.005Z,71.00
2022-10-09T01:26:59.350Z,71.11
2022-10-09T01:29:25.689Z,71.22
2022-10-09T01:31:52.017Z,71.31
2022-10-09T01:34:18.381Z,71.17
2022-10-09T01:36:44.705Z,70.99
2022-10-09T01:39:11.023Z,70.91
2022-10-09T01:41:37.383Z,70.90
2022-10-09T01:44:03.721Z,71.16
2022-10-09T01:46:30.160Z,71.38
2022-10-09T01:48:56.362Z,71.16
2022-10-09T01:51:22.706Z,71.15
2022-10-09T01:53:49.042Z,71.07
2022-10-09T01:56:15.385Z,70.69
2022-10-09T01:58:41.700Z,70.48
2022-10-09T02:01:08.086Z,70.75
2022-10-09T02:03:34.351Z,70.86
2022-10-09T02:06:00.675Z,71.19
2022-10-09T02:08:27.016Z,71.30
2022-10-09T02:10:53.361Z,71.58
2022-10-09T02:13:19.696Z,71.47
2022-10-09T02:15:46.098Z,71.78
2022-10-09T02:18:12.354Z,71.95
2022-10-09T02:20:38.686Z,72.23
2022-10-09T02:23:05.042Z,72.26
2022-10-09T02:25:31.388Z,72.11
2022-10-09T02:27:57.721Z,72.41
2022-10-09T02:30:24.068Z,72.30
2022-10-09T02:32:50.606Z,72.54
2022-10-09T02:35:16.756Z,72.59
2022-10-09T02:37:43.074Z,72.82
2022-10-09T02:40:10.874Z,72.73
2022-10-09T02:42:35.795Z,72.68
2022-10-09T02:45:02.117Z,72.71
2022-10-09T02:47:28.497Z,72.73
2022-10-09T02:49:54.834Z,72.85
2022-10-09T02:52:21.169Z,72.69
2022-10-09T02:54:47.514Z,72.96
2022-10-09T02:57:13.830Z,73.33
2022-10-09T02:59:40.177Z,73.65
2022-10-09T03:02:06.662Z,73.96
2022-10-09T03:04:32.844Z,74.33
2022-10-09T03:06:59.209Z,74.27
2022-10-09T03:09:28.194Z,74.06
2022-10-09T03:11:51.864Z,74.11
2022-10-09T03:14:18.192Z,74.06
2022-10-09T03:16:44.513Z,74.05
2022-10-09T03:19:10.886Z,74.31
2022-10-09T03:21:37.226Z,74.93
2022-10-09T03:24:03.561Z,75.10
2022-10-09T03:26:29.900Z,75.43
2022-10-09T03:28:56.220Z,75.49
2022-10-09T03:31:47.034Z,75.58
2022-10-09T03:33:48.920Z,75.39
2022-10-09T03:36:15.259Z,75.52
2022-10-09T03:38:41.601Z,75.64
2022-10-09T03:41:07.943Z,75.62
2022-10-09T03:43:34.268Z,75.31
2022-10-09T03:46:01.259Z,74.90
2022-10-09T03:48:26.980Z,74.83
2022-10-09T03:50:53.298Z,74.92
2022-10-09T03:53:19.644Z,74.82
2022-10-09T03:55:45.984Z,74.69
2022-10-09T03:58:12.315Z,74.72
2022-10-09T04:00:38.701Z,74.56
2022-10-09T04:03:05.086Z,74.81
2022-10-09T04:05:31.339Z,75.17
2022-10-09T04:07:57.700Z,75.35
2022-10-09T04:10:24.014Z,75.23
2022-10-09T04:12:50.706Z,75.58
2022-10-09T04:15:16.685Z,75.93
2022-10-09T04:17:43.036Z,76.19
2022-10-09T04:20:09.382Z,76.12
2022-10-09T04:22:35.790Z,76.40
2022-10-09T04:25:02.112Z,76.42
2022-10-09T04:27:28.439Z,76.32
2022-10-09T04:29:54.777Z,76.30
2022-10-09T04:32:21.099Z,76.26
2022-10-09T04:34:47.423Z,76.06
2022-10-09T04:37:13.778Z,75.76
2022-10-09T04:39:40.119Z,75.65
2022-10-09T04:42:06.446Z,75.64
2022-10-09T04:44:32.788Z,75.82
2022-10-09T04:46:59.109Z,75.63
2022-10-09T04:49:25.620Z,74.92
2022-10-09T04:51:52.077Z,74.89
2022-10-09T04:54:18.402Z,74.31
2022-10-09T04:56:44.813Z,74.80
2022-10-09T04:59:11.245Z,74.90
2022-10-09T05:01:38.606Z,74.97
2022-10-09T05:04:03.910Z,75.12
2022-10-09T05:06:30.234Z,74.75
2022-10-09T05:08:56.598Z,74.52
2022-10-09T05:11:22.943Z,73.90
2022-10-09T05:13:49.280Z,73.55
2022-10-09T05:16:15.635Z,73.04
2022-10-09T05:18:41.974Z,72.63
2022-10-09T05:21:08.313Z,72.54
2022-10-09T05:23:34.624Z,71.76
2022-10-09T05:26:01.008Z,71.21
2022-10-09T05:28:27.406Z,71.25
2022-10-09T05:30:53.664Z,70.59
2022-10-09T05:33:20.056Z,70.07
2022-10-09T05:35:46.343Z,69.49
2022-10-09T05:38:12.680Z,68.91
2022-10-09T05:40:39.010Z,67.99
2022-10-09T05:43:05.353Z,65.63
2022-10-09T05:45:31.762Z,64.37
2022-10-09T05:47:58.065Z,63.79
2022-10-09T05:50:24.404Z,63.25
2022-10-09T05:52:50.943Z,63.07
2022-10-09T05:55:17.105Z,63.18
2022-10-09T05:57:43.440Z,62.79
2022-10-09T06:00:09.816Z,62.43
2022-10-09T06:02:36.260Z,61.71
2022-10-09T06:05:02.508Z,60.47
2022-10-09T06:07:28.870Z,59.84
2022-10-09T06:09:55.211Z,59.50
2022-10-09T06:12:21.534Z,59.38
2022-10-09T06:14:47.862Z,59.36
2022-10-09T06:17:14.225Z,59.69
2022-10-09T06:19:40.559Z,58.95
2022-10-09T06:22:06.902Z,58.85
2022-10-09T06:24:33.255Z,58.58
2022-10-09T06:26:59.597Z,58.22
2022-10-09T06:29:25.935Z,57.45
2022-10-09T06:31:52.263Z,56.54
2022-10-09T06:34:18.582Z,55.75
2022-10-09T06:36:44.950Z,55.41
2022-10-09T06:39:11.271Z,56.42
2022-10-09T06:41:37.645Z,55.12
2022-10-09T06:44:03.986Z,54.45
2022-10-09T06:46:30.430Z,55.65
2022-10-09T06:48:56.737Z,55.67
2022-10-09T06:51:23.078Z,56.21
2022-10-09T06:53:49.418Z,55.69
2022-10-09T06:56:15.767Z,55.10
2022-10-09T06:58:42.111Z,53.69
2022-10-09T07:01:08.487Z,53.26
2022-10-09T07:03:34.806Z,53.46
2022-10-09T07:06:01.119Z,52.54
2022-10-09T07:08:27.442Z,51.75
2022-10-09T07:10:53.786Z,50.96
2022-10-09T07:13:20.106Z,51.21
2022-10-09T07:15:46.475Z,50.39
2022-10-09T07:18:12.772Z,49.74
2022-10-09T07:20:39.091Z,49.98
2022-10-09T07:23:05.428Z,48.39
2022-10-09T07:25:31.788Z,48.36
2022-10-09T07:27:58.123Z,48.18
2022-10-09T07:30:24.463Z,48.59
2022-10-09T07:32:51.377Z,47.90
2022-10-09T07:35:17.145Z,47.04
2022-10-09T07:37:43.496Z,46.52
2022-10-09T07:40:09.821Z,46.68
2022-10-09T07:42:36.139Z,45.94
2022-10-09T07:45:02.512Z,46.54
2022-10-09T07:47:28.841Z,48.45
2022-10-09T07:49:55.187Z,48.31
2022-10-09T07:52:21.508Z,45.52
2022-10-09T07:54:47.849Z,45.45
2022-10-09T07:57:14.186Z,45.86
2022-10-09T07:59:40.543Z,45.42
2022-10-09T08:02:06.911Z,46.14
2022-10-09T08:04:33.207Z,46.00
2022-10-09T08:06:59.532Z,45.19
2022-10-09T08:09:25.907Z,44.63
2022-10-09T08:11:52.245Z,44.12
2022-10-09T08:14:19.580Z,44.01
2022-10-09T08:16:44.952Z,43.46
2022-10-09T08:19:11.306Z,43.27
2022-10-09T08:21:37.627Z,43.06
2022-10-09T08:24:03.954Z,42.66
2022-10-09T08:26:30.272Z,42.82
2022-10-09T08:28:56.597Z,42.33
2022-10-09T08:31:22.982Z,42.08
2022-10-09T08:33:49.255Z,41.52
2022-10-09T08:36:15.594Z,41.11
2022-10-09T08:38:49.131Z,41.66
2022-10-09T08:41:08.292Z,41.46
2022-10-09T08:43:34.613Z,42.50
2022-10-09T08:46:00.974Z,41.70
2022-10-09T08:48:27.294Z,41.02
2022-10-09T08:50:53.632Z,41.27
2022-10-09T08:53:19.970Z,40.65
2022-10-09T08:55:46.343Z,40.56
2022-10-09T08:58:12.662Z,39.92
2022-10-09T09:00:39.016Z,38.91
2022-10-09T09:03:05.388Z,38.66
2022-10-09T09:05:31.791Z,38.61
2022-10-09T09:07:58.118Z,38.41
2022-10-09T09:10:24.458Z,38.29
2022-10-09T09:12:51.423Z,38.21
2022-10-09T09:15:17.137Z,38.83
2022-10-09T09:17:43.485Z,38.26
2022-10-09T09:20:09.823Z,38.15
2022-10-09T09:22:36.159Z,38.44
2022-10-09T09:25:02.491Z,37.21
2022-10-09T09:27:28.816Z,37.10
2022-10-09T09:29:55.152Z,36.85
2022-10-09T09:32:21.554Z,36.96
2022-10-09T09:34:47.879Z,36.63
2022-10-09T09:37:14.218Z,37.09
2022-10-09T09:42:06.923Z,35.87
2022-10-09T09:44:33.241Z,35.64
2022-10-09T09:46:59.593Z,35.52
2022-10-09T09:49:25.945Z,35.96
2022-10-09T09:51:52.286Z,35.98
2022-10-09T09:54:18.622Z,35.43
2022-10-09T09:57:12.936Z,35.67
2022-10-09T09:59:11.317Z,35.32
2022-10-09T10:01:37.710Z,35.40
2022-10-09T10:04:03.975Z,35.40
2022-10-09T10:06:30.319Z,34.50
2022-10-09T10:08:56.667Z,34.40
2022-10-09T10:11:23.045Z,34.56
2022-10-09T10:13:49.384Z,34.91
2022-10-09T10:16:15.792Z,34.69
2022-10-09T10:18:42.079Z,34.79
2022-10-09T10:21:08.403Z,34.16
2022-10-09T10:23:34.744Z,34.52
2022-10-09T10:26:01.082Z,33.82
2022-10-09T10:28:27.462Z,34.08
2022-10-09T10:30:53.764Z,33.76
2022-10-09T10:33:20.130Z,33.77
2022-10-09T10:35:46.533Z,32.91
2022-10-09T10:38:12.880Z,32.64
2022-10-09T10:40:39.206Z,33.22
2022-10-09T10:43:05.526Z,33.41
2022-10-09T10:45:31.854Z,33.19
2022-10-09T10:47:58.209Z,32.59
2022-10-09T10:50:24.552Z,32.96
2022-10-09T10:52:50.918Z,33.14
2022-10-09T10:55:17.267Z,32.63
2022-10-09T10:57:43.600Z,33.06
2022-10-09T11:00:09.949Z,32.71
2022-10-09T11:02:40.948Z,32.23
2022-10-09T11:05:02.624Z,32.49
2022-10-09T11:07:28.944Z,32.68
2022-10-09T11:09:55.269Z,31.18
2022-10-09T11:12:43.389Z,31.22
2022-10-09T11:14:48.023Z,30.84
2022-10-09T11:17:14.368Z,30.12
2022-10-09T11:19:45.248Z,30.41
2022-10-09T11:22:07.084Z,30.81
2022-10-09T11:24:33.406Z,30.58
2022-10-09T11:27:03.376Z,30.58
2022-10-09T11:29:26.088Z,30.47
2022-10-09T11:31:52.488Z,30.00
2022-10-09T11:34:18.779Z,29.69
2022-10-09T11:36:45.128Z,29.51
2022-10-09T11:39:11.453Z,29.85
2022-10-09T11:41:37.797Z,31.00
2022-10-09T11:44:04.153Z,31.24
2022-10-09T11:46:30.492Z,31.41
2022-10-09T11:48:56.819Z,31.63
2022-10-09T11:51:23.161Z,30.85
2022-10-09T11:53:49.500Z,31.12
2022-10-09T11:56:15.814Z,31.18
2022-10-09T11:58:42.143Z,31.25
2022-10-09T12:01:08.593Z,30.85
2022-10-09T12:03:34.878Z,30.71
2022-10-09T12:06:01.230Z,30.63
2022-10-09T12:08:27.607Z,30.78
2022-10-09T12:10:53.916Z,30.56
2022-10-09T12:13:20.276Z,30.68
2022-10-09T12:15:46.629Z,30.60
2022-10-09T12:18:12.924Z,29.71
2022-10-09T12:20:39.246Z,30.06
2022-10-09T12:23:25.881Z,30.32
2022-10-09T12:25:31.905Z,29.97
2022-10-09T12:27:58.245Z,29.46
2022-10-09T12:30:24.621Z,29.55
2022-10-09T12:32:51.287Z,29.78
2022-10-09T12:35:17.287Z,29.79
2022-10-09T12:37:43.687Z,29.28
2022-10-09T12:40:10.023Z,29.43
2022-10-09T12:42:36.371Z,29.28
2022-10-09T12:45:02.724Z,29.27
2022-10-09T12:47:29.047Z,29.64
2022-10-09T12:49:55.379Z,29.72
2022-10-09T12:52:21.710Z,30.17
2022-10-09T12:54:48.064Z,30.27
2022-10-09T12:57:14.426Z,30.39
2022-10-09T12:59:40.738Z,30.98
2022-10-09T13:02:07.264Z,31.39
2022-10-09T13:04:33.455Z,31.97
2022-10-09T13:06:59.806Z,32.08
2022-10-09T13:09:26.146Z,32.86
2022-10-09T13:11:52.535Z,33.44
2022-10-09T13:14:18.849Z,33.33
2022-10-09T13:16:45.237Z,33.58
2022-10-09T13:19:11.534Z,33.88
2022-10-09T13:21:37.882Z,34.29
2022-10-09T13:24:04.217Z,34.10
2022-10-09T13:26:30.580Z,34.14
2022-10-09T13:28:56.901Z,34.20
2022-10-09T13:31:23.225Z,34.38
2022-10-09T13:33:49.568Z,34.55
2022-10-09T13:36:15.911Z,34.46
2022-10-09T13:38:42.228Z,34.88
2022-10-09T13:41:08.556Z,34.19
2022-10-09T13:43:34.879Z,35.12
2022-10-09T13:46:01.240Z,35.30
2022-10-09T13:48:27.580Z,35.11
2022-10-09T13:50:53.920Z,35.59
2022-10-09T13:53:20.252Z,36.15
2022-10-09T13:55:46.609Z,36.25
2022-10-09T13:58:12.959Z,36.77
2022-10-09T14:00:39.282Z,37.45
2022-10-09T14:03:05.617Z,37.26
2022-10-09T14:05:31.966Z,37.49
2022-10-09T14:07:58.416Z,37.64
2022-10-09T14:10:24.749Z,37.47
2022-10-09T14:12:51.623Z,37.51
2022-10-09T14:15:17.430Z,37.74
2022-10-09T14:17:43.776Z,37.72
2022-10-09T14:20:10.106Z,38.08
2022-10-09T14:22:36.424Z,38.14
2022-10-09T14:25:02.776Z,38.55
2022-10-09T14:27:29.134Z,38.94
2022-10-09T14:29:57.319Z,38.85
2022-10-09T14:32:21.804Z,39.17
2022-10-09T14:34:48.156Z,39.61
2022-10-09T14:37:24.062Z,39.87
2022-10-09T14:39:40.818Z,39.73
2022-10-09T14:42:07.152Z,39.76
2022-10-09T14:44:33.483Z,40.41
2022-10-09T14:46:59.822Z,40.62
2022-10-09T14:49:26.165Z,40.67
2022-10-09T14:51:52.551Z,40.66
2022-10-09T14:54:18.874Z,40.93
2022-10-09T14:56:45.253Z,41.57
2022-10-09T14:59:11.593Z,41.89
2022-10-09T15:01:37.918Z,42.35
2022-10-09T15:04:04.343Z,42.62
2022-10-09T15:06:30.595Z,43.15
2022-10-09T15:08:59.242Z,43.45
2022-10-09T15:11:23.283Z,43.50
2022-10-09T15:13:49.584Z,43.98
2022-10-09T15:16:15.910Z,44.25
2022-10-09T15:18:42.258Z,44.25
2022-10-09T15:21:08.601Z,44.12
2022-10-09T15:23:34.923Z,44.12
2022-10-09T15:26:01.247Z,44.41
2022-10-09T15:28:27.667Z,44.80
2022-10-09T15:30:53.945Z,44.88
2022-10-09T15:33:20.284Z,45.15
2022-10-09T15:35:46.610Z,45.33
2022-10-09T15:38:12.950Z,45.62
2022-10-09T15:40:39.287Z,45.80
2022-10-09T15:43:05.614Z,46.10
2022-10-09T15:45:31.930Z,46.47
2022-10-09T15:47:58.277Z,47.02
2022-10-09T15:50:24.595Z,47.13
2022-10-09T15:52:51.231Z,47.49
2022-10-09T15:55:17.301Z,47.73
2022-10-09T15:57:43.656Z,47.93
2022-10-09T16:00:10.031Z,48.56
2022-10-09T16:02:36.382Z,48.96
2022-10-09T16:05:02.707Z,49.44
2022-10-09T16:07:29.041Z,49.59
2022-10-09T16:09:55.376Z,49.70
2022-10-09T16:12:21.689Z,49.90
2022-10-09T16:14:48.076Z,50.11
2022-10-09T16:17:14.391Z,50.28
2022-10-09T16:19:40.715Z,50.44
2022-10-09T16:22:07.108Z,50.73
2022-10-09T16:24:33.471Z,50.92
2022-10-09T16:26:59.831Z,51.19
2022-10-09T16:29:26.182Z,51.24
2022-10-09T16:31:52.502Z,51.50
2022-10-09T16:34:18.881Z,51.35
2022-10-09T16:36:45.190Z,51.86
2022-10-09T16:39:11.537Z,52.26
2022-10-09T16:41:41.789Z,52.62
2022-10-09T16:44:04.216Z,52.91
2022-10-09T16:46:30.681Z,53.12
2022-10-09T16:48:56.977Z,53.40
2022-10-09T16:51:23.325Z,53.31
2022-10-09T16:53:49.696Z,53.73
2022-10-09T16:56:16.017Z,53.97
2022-10-09T16:58:42.340Z,54.25
2022-10-09T17:01:10.207Z,54.73
2022-10-09T17:03:35.005Z,54.87
2022-10-09T17:06:01.320Z,55.20
2022-10-09T17:08:27.722Z,55.58
2022-10-09T17:10:54.189Z,55.75
2022-10-09T17:13:20.535Z,55.96
2022-10-09T17:15:46.881Z,56.21
2022-10-09T17:18:13.199Z,56.40
2022-10-09T17:20:39.526Z,56.62
2022-10-09T17:23:05.848Z,56.73
2022-10-09T17:25:32.170Z,56.84
2022-10-09T17:27:58.529Z,57.13
2022-10-09T17:30:24.862Z,57.20
2022-10-09T17:32:51.611Z,57.16
2022-10-09T17:35:17.564Z,57.23
2022-10-09T17:37:43.884Z,57.54
2022-10-09T17:40:10.227Z,57.78
2022-10-09T17:42:36.565Z,57.79
2022-10-09T17:45:02.890Z,57.92
2022-10-09T17:47:29.211Z,58.39
2022-10-09T17:49:55.527Z,58.69
2022-10-09T17:52:21.857Z,58.86
2022-10-09T17:54:48.177Z,59.14
2022-10-09T17:57:14.561Z,59.78
2022-10-09T17:59:40.889Z,59.80
2022-10-09T18:02:07.245Z,59.98
2022-10-09T18:04:33.577Z,60.10
2022-10-09T18:06:59.910Z,60.21
2022-10-09T18:09:26.283Z,60.37
2022-10-09T18:11:52.624Z,60.41
2022-10-09T18:14:18.942Z,60.31
2022-10-09T18:16:45.300Z,60.41
2022-10-09T18:19:11.620Z,60.60
2022-10-09T18:21:37.945Z,60.90
2022-10-09T18:24:04.287Z,60.95
2022-10-09T18:26:30.608Z,60.91
2022-10-09T18:28:56.947Z,60.64
2022-10-09T18:31:23.271Z,60.71
2022-10-09T18:33:49.671Z,60.86
2022-10-09T18:36:16.010Z,60.78
2022-10-09T18:38:42.348Z,60.88
2022-10-09T18:41:08.673Z,61.05
2022-10-09T18:43:34.990Z,61.32
2022-10-09T18:46:01.367Z,61.70
2022-10-09T18:48:27.707Z,61.64
2022-10-09T18:50:54.051Z,61.97
2022-10-09T18:53:20.436Z,62.15
2022-10-09T18:55:46.803Z,62.48
2022-10-09T18:58:13.142Z,62.60
2022-10-09T19:00:39.531Z,62.99
2022-10-09T19:03:05.805Z,63.29
2022-10-09T19:05:32.155Z,63.54
2022-10-09T19:07:58.474Z,63.52
2022-10-09T19:10:24.802Z,63.50
2022-10-09T19:12:51.168Z,63.40
2022-10-09T19:15:17.495Z,63.49
2022-10-09T19:17:43.835Z,63.84
2022-10-09T19:20:10.199Z,63.99
2022-10-09T19:22:36.561Z,64.27
2022-10-09T19:25:02.902Z,64.32
2022-10-09T19:27:29.246Z,64.59
2022-10-09T19:29:55.573Z,64.47
2022-10-09T19:32:23.905Z,64.63
2022-10-09T19:34:48.263Z,64.61
2022-10-09T19:37:14.582Z,64.84
2022-10-09T19:39:40.939Z,65.00
2022-10-09T19:42:07.275Z,65.21
2022-10-09T19:44:33.594Z,65.38
2022-10-09T19:46:59.946Z,65.58
2022-10-09T19:49:26.276Z,65.53
2022-10-09T19:51:52.592Z,65.52
2022-10-09T19:54:19.002Z,65.74
2022-10-09T19:56:45.307Z,65.73
2022-10-09T19:59:11.627Z,65.86
2022-10-09T20:01:38.096Z,65.85
2022-10-09T20:04:04.296Z,65.92
2022-10-09T20:06:30.636Z,65.82
2022-10-09T20:08:56.960Z,65.78
2022-10-09T20:11:23.315Z,65.72
2022-10-09T20:13:53.437Z,65.70
2022-10-09T20:16:15.981Z,65.65
2022-10-09T20:18:42.529Z,65.82
2022-10-09T20:21:08.639Z,66.20
2022-10-09T20:23:35.029Z,66.39
2022-10-09T20:26:01.365Z,66.62
2022-10-09T20:28:27.770Z,66.59
2022-10-09T20:30:54.039Z,66.46
2022-10-09T20:33:20.362Z,66.21
2022-10-09T20:35:46.700Z,66.20
2022-10-09T20:38:13.073Z,66.21
2022-10-09T20:40:39.407Z,66.28
2022-10-09T20:43:05.747Z,66.41
2022-10-09T20:45:32.062Z,66.65
2022-10-09T20:47:58.386Z,66.86
2022-10-09T20:50:24.729Z,67.11
2022-10-09T20:52:51.345Z,67.31
2022-10-09T20:55:17.435Z,67.47
2022-10-09T20:57:44.882Z,67.60
2022-10-09T21:00:11.219Z,67.69
2022-10-09T21:02:37.564Z,67.63
2022-10-09T21:05:03.886Z,67.91
2022-10-09T21:07:30.262Z,67.50
2022-10-09T21:09:56.598Z,67.41
2022-10-09T21:12:22.938Z,67.39
2022-10-09T21:14:49.330Z,67.55
2022-10-09T21:17:15.659Z,67.79
2022-10-09T21:19:41.992Z,67.97
2022-10-09T21:22:08.340Z,67.54
2022-10-09T21:24:34.703Z,67.53
2022-10-09T21:27:01.043Z,67.70
2022-10-09T21:29:27.687Z,67.64
2022-10-09T21:31:54.036Z,67.97
2022-10-09T21:34:20.354Z,68.22
2022-10-09T21:37:08.884Z,68.92
2022-10-09T21:39:13.067Z,68.74
2022-10-09T21:41:39.407Z,68.85
2022-10-09T21:44:05.742Z,68.83
2022-10-09T21:46:32.083Z,68.72
2022-10-09T21:48:58.429Z,68.80
2022-10-09T21:51:24.773Z,69.02
2022-10-09T21:53:51.108Z,69.13
2022-10-09T21:56:17.472Z,69.42
2022-10-09T21:58:48.758Z,69.65
2022-10-09T22:01:10.154Z,69.46
2022-10-09T22:03:36.428Z,69.41
2022-10-09T22:06:02.753Z,69.27
2022-10-09T22:08:29.093Z,69.53
2022-10-09T22:10:55.453Z,69.54
2022-10-09T22:13:21.791Z,69.49
2022-10-09T22:15:51.192Z,69.44
2022-10-09T22:18:14.492Z,69.69
2022-10-09T22:20:40.813Z,69.87
2022-10-09T22:23:07.149Z,70.17
2022-10-09T22:25:33.519Z,70.04
2022-10-09T22:27:59.856Z,70.24
2022-10-09T22:30:26.181Z,70.29
2022-10-09T22:32:52.922Z,70.20
2022-10-09T22:35:18.879Z,70.50
2022-10-09T22:37:45.213Z,70.90
2022-10-09T22:40:11.575Z,70.78
2022-10-09T22:42:37.896Z,71.03
2022-10-09T22:45:04.217Z,71.37
2022-10-09T22:47:30.576Z,71.24
2022-10-09T22:49:56.899Z,71.08
2022-10-09T22:52:23.225Z,71.08
2022-10-09T22:54:49.569Z,70.93
2022-10-09T22:57:15.943Z,71.65
2022-10-09T22:59:42.262Z,72.09
2022-10-09T23:02:08.613Z,72.36
2022-10-09T23:04:34.981Z,73.10
2022-10-09T23:07:01.298Z,73.18
2022-10-09T23:09:27.628Z,73.16
2022-10-09T23:11:54.006Z,73.05
2022-10-09T23:14:20.323Z,73.68
2022-10-09T23:16:46.664Z,73.54
2022-10-09T23:19:13.010Z,73.17
2022-10-09T23:21:39.366Z,73.01
2022-10-09T23:24:05.690Z,72.68
2022-10-09T23:26:32.008Z,72.58
2022-10-09T23:28:58.374Z,72.95
2022-10-09T23:31:24.700Z,73.44
2022-10-09T23:33:51.045Z,73.41
2022-10-09T23:36:17.401Z,73.81
2022-10-09T23:38:43.747Z,73.86
2022-10-09T23:41:10.083Z,74.23
2022-10-09T23:43:36.431Z,75.21
2022-10-09T23:46:02.762Z,74.98
2022-10-09T23:48:29.121Z,75.14
2022-10-09T23:50:55.436Z,75.14
2022-10-09T23:53:21.779Z,74.95
2022-10-09T23:55:48.126Z,75.36
2022-10-09T23:58:18.520Z,75.12
